< Cyclone 197315 1974 Season Cyclone 197402 >
Cyclone 197401 (INES)
General InformationTrack Information on Google MapsDetailed Wind Information || ResourceGoogle EarthGE AnimationAtom FeedGeoJSON
Detalied Best Track (Time Zone = UTC)
Year Month Day Hour Lat. Long. Pressure (hPa) Wind (kt) Class Image Chart
1973 11 17 00 -11.4 134.8 995 20 2 -- --
1973 11 17 03 -11.4 134.5 995 20 2 -- --
1973 11 17 06 -11.4 134.0 995 25 2 -- --
1973 11 17 09 -11.3 133.6 995 25 2 -- --
1973 11 17 12 -11.1 133.6 995 25 2 -- --
1973 11 17 15 -10.9 133.2 995 25 2 -- --
1973 11 17 18 -10.8 133.1 995 25 2 -- --
1973 11 17 21 -10.7 132.9 995 25 2 -- --
1973 11 18 00 -10.7 132.8 995 30 2 -- --
1973 11 18 03 -10.7 132.5 995 30 2 -- --
1973 11 18 06 -10.8 132.3 995 30 2 -- --
1973 11 18 09 -10.8 132.0 995 30 2 -- --
1973 11 18 12 -10.8 131.8 995 35 3 -- --
1973 11 18 15 -10.8 131.6 995 35 3 -- --
1973 11 18 18 -10.8 131.3 995 35 3 -- --
1973 11 18 21 -10.8 131.0 995 35 3 -- --
1973 11 19 00 -10.8 130.8 995 40 3 -- --
1973 11 19 03 -10.9 130.5 995 45 3 -- --
1973 11 19 06 -11.0 130.1 993 50 4 -- --
1973 11 19 09 -11.0 129.9 993 50 4 -- --
1973 11 19 12 -11.1 129.5 993 50 4 -- --
1973 11 19 15 -11.2 129.2 993 50 4 -- --
1973 11 19 18 -11.2 129.0 993 50 4 -- --
1973 11 19 21 -11.3 128.7 990 55 4 -- --
1973 11 20 00 -11.4 128.5 990 60 4 -- --
1973 11 20 03 -11.6 128.2 990 65 5 -- --
1973 11 20 06 -11.7 127.9 985 65 5 -- --
1973 11 20 09 -11.9 127.5 985 65 5 -- --
1973 11 20 12 -12.1 127.3 980 65 5 -- --
1973 11 20 15 -12.4 126.8 980 65 5 -- --
1973 11 20 18 -12.6 126.6 975 70 5 -- --
1973 11 20 21 -12.8 126.4 975 75 5 -- --
1973 11 21 00 -13.1 126.2 970 80 5 -- --
1973 11 21 03 -13.3 126.1 970 80 5 -- --
1973 11 21 06 -13.6 126.1 970 80 5 -- --
1973 11 21 09 -13.8 126.0 970 80 5 -- --
1973 11 21 12 -14.1 125.9 970 80 5 -- --
1973 11 21 15 -14.4 125.8 980 70 5 -- --
1973 11 21 16 -14.9 125.4 985 65 5 -- --
1973 11 21 19 -15.2 125.3 987 60 4 -- --
1973 11 21 22 -15.5 125.3 989 50 4 -- --
1973 11 22 01 -15.8 125.4 990 45 3 -- --
1973 11 22 04 -16.1 125.4 991 40 3 -- --
1973 11 22 07 -16.4 125.4 991 35 3 -- --
1973 11 22 10 -16.6 125.4 991 35 3 -- --
1973 11 22 13 -16.9 125.4 992 35 3 -- --
1973 11 22 16 -17.2 125.4 992 30 2 -- --
1973 11 22 19 -17.5 125.4 992 30 2 -- --
1973 11 22 22 -17.7 125.4 993 25 2 -- --
1973 11 23 01 -17.9 125.4 994 25 2 -- --
1973 11 23 04 -18.1 125.4 995 25 2 -- --
1973 11 23 07 -18.2 125.4 996 25 2 -- --
1973 11 23 10 -18.3 125.4 997 25 2 -- --
1973 11 23 13 -18.3 125.4 998 25 2 -- --
1973 11 23 16 -18.4 125.4 999 25 2 -- --
1973 11 23 19 -18.5 125.4 999 25 2 -- --
1973 11 23 22 -18.9 126.7 1000 20 2 -- --
1973 11 24 01 -19.3 127.5 1000 20 2 -- --
1973 11 24 04 -19.7 128.6 1000 20 2 -- --
1973 11 24 07 -19.7 129.5 1000 20 2 -- --
< Cyclone 197315 1974 Season Cyclone 197402 >

Help